AAL813 KMSP-KGRB
Flight info
| Callsign | AAL813 |
|---|---|
| Flight time | 0h 40m |
| Altitude | 29000 |
| Route | WLSTN7 GRB |
| Aircraft | B38M/M-SDE1FGHILORVWXY/HB1 |
Departure
| Time | 2026-04-14 03:05 |
|---|---|
| Airport | Minneapolis–Saint Paul International Airport / Wold–Chamberlain Field (KMSP) |
Arrival
| Time | 2026-04-14 03:45 |
|---|---|
| Airport | Austin Straubel International Airport (KGRB) |
| Time | Latitude | Longitude | Altitude | Speed | Heading |
|---|---|---|---|---|---|
| 2026-04-14 02:54 | 44.88597 | -93.21389 | 844 ft | 0 kts | 162° |
| 2026-04-14 02:57 | 44.88605 | -93.21393 | 845 ft | 3 kts | 162° |
| 2026-04-14 02:57 | 44.88622 | -93.21401 | 839 ft | 3 kts | 150° |
| 2026-04-14 02:58 | 44.88635 | -93.21417 | 841 ft | 3 kts | 122° |
| 2026-04-14 02:58 | 44.88641 | -93.21440 | 839 ft | 3 kts | 93° |
| 2026-04-14 02:58 | 44.88639 | -93.21461 | 837 ft | 0 kts | 71° |
| 2026-04-14 03:01 | 44.88641 | -93.21452 | 843 ft | 5 kts | 69° |
| 2026-04-14 03:01 | 44.88701 | -93.21381 | 846 ft | 16 kts | 32° |
| 2026-04-14 03:01 | 44.88801 | -93.21291 | 840 ft | 16 kts | 354° |
| 2026-04-14 03:02 | 44.88868 | -93.21412 | 835 ft | 16 kts | 300° |
| 2026-04-14 03:02 | 44.88929 | -93.21556 | 840 ft | 19 kts | 302° |
| 2026-04-14 03:02 | 44.89002 | -93.21723 | 843 ft | 20 kts | 301° |
| 2026-04-14 03:02 | 44.89077 | -93.21896 | 839 ft | 21 kts | 301° |
| 2026-04-14 03:03 | 44.89153 | -93.22070 | 841 ft | 20 kts | 302° |
| 2026-04-14 03:03 | 44.89195 | -93.22131 | 841 ft | 1 kts | 345° |
| 2026-04-14 03:03 | 44.89202 | -93.22134 | 842 ft | 0 kts | 345° |
| 2026-04-14 03:04 | 44.89244 | -93.22128 | 849 ft | 13 kts | 21° |
| 2026-04-14 03:04 | 44.89252 | -93.21994 | 848 ft | 25 kts | 123° |
| 2026-04-14 03:04 | 44.89005 | -93.21426 | 840 ft | 107 kts | 121° |
| 2026-04-14 03:05 | 44.88500 | -93.20248 | 854 ft | 169 kts | 123° |
| 2026-04-14 03:05 | 44.87808 | -93.18744 | 1309 ft | 194 kts | 124° |
| 2026-04-14 03:05 | 44.87017 | -93.17142 | 2293 ft | 194 kts | 123° |
| 2026-04-14 03:05 | 44.86289 | -93.15568 | 3460 ft | 194 kts | 121° |
| 2026-04-14 03:06 | 44.85557 | -93.13867 | 4191 ft | 215 kts | 121° |
| 2026-04-14 03:06 | 44.84893 | -93.11893 | 4766 ft | 240 kts | 100° |
| 2026-04-14 03:06 | 44.85136 | -93.09537 | 5538 ft | 254 kts | 62° |
| 2026-04-14 03:06 | 44.86382 | -93.07686 | 6300 ft | 268 kts | 29° |
| 2026-04-14 03:07 | 44.88011 | -93.06353 | 7088 ft | 281 kts | 33° |
| 2026-04-14 03:07 | 44.89626 | -93.04724 | 8026 ft | 288 kts | 34° |
| 2026-04-14 03:07 | 44.91243 | -93.03016 | 9037 ft | 293 kts | 35° |
| 2026-04-14 03:07 | 44.92877 | -93.01249 | 9990 ft | 299 kts | 35° |
| 2026-04-14 03:08 | 44.94554 | -92.99411 | 10690 ft | 314 kts | 36° |
| 2026-04-14 03:08 | 44.96322 | -92.97439 | 11244 ft | 332 kts | 36° |
| 2026-04-14 03:08 | 44.98167 | -92.95368 | 11908 ft | 345 kts | 36° |
| 2026-04-14 03:08 | 45.00074 | -92.93228 | 12630 ft | 355 kts | 36° |
| 2026-04-14 03:09 | 45.02025 | -92.91049 | 13527 ft | 360 kts | 36° |
| 2026-04-14 03:09 | 45.04009 | -92.88830 | 14283 ft | 367 kts | 36° |
| 2026-04-14 03:09 | 45.06029 | -92.86574 | 15053 ft | 373 kts | 35° |
| 2026-04-14 03:09 | 45.08076 | -92.84284 | 15836 ft | 379 kts | 35° |
| 2026-04-14 03:10 | 45.10161 | -92.81952 | 16625 ft | 385 kts | 35° |
| 2026-04-14 03:10 | 45.12278 | -92.79582 | 17375 ft | 391 kts | 36° |
| 2026-04-14 03:10 | 45.14426 | -92.77174 | 18106 ft | 397 kts | 36° |
| 2026-04-14 03:10 | 45.16604 | -92.74730 | 18710 ft | 402 kts | 36° |
| 2026-04-14 03:11 | 45.18813 | -92.72251 | 19344 ft | 409 kts | 36° |
| 2026-04-14 03:11 | 45.21060 | -92.69725 | 19943 ft | 415 kts | 36° |
| 2026-04-14 03:11 | 45.23259 | -92.67036 | 20523 ft | 423 kts | 46° |
| 2026-04-14 03:11 | 45.24927 | -92.63583 | 21119 ft | 428 kts | 65° |
| 2026-04-14 03:12 | 45.25875 | -92.59569 | 21666 ft | 432 kts | 80° |
| 2026-04-14 03:12 | 45.26523 | -92.55382 | 22218 ft | 437 kts | 81° |
| 2026-04-14 03:12 | 45.27160 | -92.51133 | 22763 ft | 442 kts | 81° |
| 2026-04-14 03:12 | 45.27786 | -92.46826 | 23312 ft | 448 kts | 82° |
| 2026-04-14 03:13 | 45.28406 | -92.42473 | 23804 ft | 452 kts | 82° |
| 2026-04-14 03:13 | 45.29026 | -92.38084 | 24314 ft | 455 kts | 82° |
| 2026-04-14 03:13 | 45.29649 | -92.33666 | 24806 ft | 458 kts | 82° |
| 2026-04-14 03:13 | 45.30266 | -92.29272 | 25290 ft | 461 kts | 82° |
| 2026-04-14 03:14 | 45.30893 | -92.24785 | 25773 ft | 465 kts | 82° |
| 2026-04-14 03:14 | 45.31523 | -92.20269 | 26255 ft | 468 kts | 82° |
| 2026-04-14 03:14 | 45.32155 | -92.15727 | 26729 ft | 471 kts | 82° |
| 2026-04-14 03:14 | 45.32789 | -92.11149 | 27199 ft | 474 kts | 83° |
| 2026-04-14 03:15 | 45.33427 | -92.06532 | 27659 ft | 477 kts | 83° |
| 2026-04-14 03:15 | 45.34067 | -92.01894 | 28111 ft | 480 kts | 83° |
| 2026-04-14 03:15 | 45.34708 | -91.97227 | 28550 ft | 483 kts | 83° |
| 2026-04-14 03:15 | 45.35352 | -91.92517 | 28815 ft | 489 kts | 83° |
| 2026-04-14 03:16 | 45.36007 | -91.87723 | 28807 ft | 498 kts | 83° |
| 2026-04-14 03:16 | 45.37334 | -91.77953 | 28809 ft | 505 kts | 83° |
| 2026-04-14 03:17 | 45.38656 | -91.68149 | 28816 ft | 505 kts | 83° |
| 2026-04-14 03:17 | 45.40624 | -91.53431 | 28802 ft | 504 kts | 83° |
| 2026-04-14 03:18 | 45.41924 | -91.43622 | 28793 ft | 504 kts | 83° |
| 2026-04-14 03:18 | 45.43215 | -91.33814 | 28796 ft | 504 kts | 83° |
| 2026-04-14 03:19 | 45.44498 | -91.24004 | 28810 ft | 504 kts | 83° |
| 2026-04-14 03:19 | 45.45772 | -91.14203 | 28820 ft | 504 kts | 83° |
| 2026-04-14 03:20 | 45.46542 | -91.04384 | 28819 ft | 493 kts | 100° |
| 2026-04-14 03:20 | 45.45927 | -90.99650 | 28809 ft | 480 kts | 115° |
| 2026-04-14 03:20 | 45.44575 | -90.95373 | 28831 ft | 471 kts | 125° |
| 2026-04-14 03:21 | 45.41407 | -90.87220 | 28813 ft | 470 kts | 127° |
| 2026-04-14 03:21 | 45.38116 | -90.79194 | 28801 ft | 469 kts | 127° |
| 2026-04-14 03:22 | 45.34789 | -90.71218 | 28792 ft | 469 kts | 127° |
| 2026-04-14 03:22 | 45.31478 | -90.63312 | 28778 ft | 468 kts | 127° |
| 2026-04-14 03:23 | 45.28141 | -90.55366 | 28783 ft | 468 kts | 127° |
| 2026-04-14 03:23 | 45.24798 | -90.47430 | 28789 ft | 469 kts | 127° |
| 2026-04-14 03:24 | 45.21449 | -90.39502 | 28797 ft | 469 kts | 127° |
| 2026-04-14 03:24 | 45.18092 | -90.31576 | 28799 ft | 469 kts | 127° |
| 2026-04-14 03:25 | 45.16416 | -90.27626 | 28673 ft | 463 kts | 127° |
| 2026-04-14 03:25 | 45.14764 | -90.23740 | 28009 ft | 460 kts | 127° |
| 2026-04-14 03:25 | 45.13121 | -90.19879 | 27434 ft | 456 kts | 127° |
| 2026-04-14 03:25 | 45.11491 | -90.16054 | 26851 ft | 452 kts | 127° |
| 2026-04-14 03:26 | 45.09870 | -90.12259 | 26282 ft | 449 kts | 127° |
| 2026-04-14 03:26 | 45.08259 | -90.08489 | 25700 ft | 446 kts | 127° |
| 2026-04-14 03:26 | 45.06658 | -90.04748 | 25125 ft | 444 kts | 127° |
| 2026-04-14 03:26 | 45.05058 | -90.01015 | 24568 ft | 442 kts | 127° |
| 2026-04-14 03:27 | 45.03468 | -89.97308 | 24006 ft | 441 kts | 127° |
| 2026-04-14 03:27 | 45.01878 | -89.93609 | 23471 ft | 439 kts | 127° |
| 2026-04-14 03:27 | 45.00294 | -89.89926 | 22828 ft | 438 kts | 127° |
| 2026-04-14 03:27 | 44.98715 | -89.86260 | 22266 ft | 435 kts | 127° |
| 2026-04-14 03:28 | 44.97146 | -89.82622 | 21727 ft | 431 kts | 127° |
| 2026-04-14 03:28 | 44.95593 | -89.79027 | 21209 ft | 428 kts | 127° |
| 2026-04-14 03:28 | 44.94048 | -89.75453 | 20699 ft | 425 kts | 126° |
| 2026-04-14 03:28 | 44.92514 | -89.71910 | 20182 ft | 422 kts | 126° |
| 2026-04-14 03:29 | 44.90989 | -89.68391 | 19684 ft | 419 kts | 126° |
| 2026-04-14 03:29 | 44.89471 | -89.64893 | 19183 ft | 417 kts | 126° |
| 2026-04-14 03:29 | 44.87961 | -89.61419 | 18704 ft | 414 kts | 126° |
| 2026-04-14 03:29 | 44.86459 | -89.57968 | 18218 ft | 413 kts | 126° |
| 2026-04-14 03:30 | 44.84960 | -89.54528 | 17700 ft | 410 kts | 126° |
| 2026-04-14 03:30 | 44.83472 | -89.51116 | 17204 ft | 407 kts | 126° |
| 2026-04-14 03:30 | 44.81996 | -89.47734 | 16683 ft | 404 kts | 126° |
| 2026-04-14 03:30 | 44.80529 | -89.44381 | 16265 ft | 399 kts | 126° |
| 2026-04-14 03:31 | 44.79086 | -89.41083 | 15915 ft | 394 kts | 126° |
| 2026-04-14 03:31 | 44.77675 | -89.37863 | 15508 ft | 390 kts | 126° |
| 2026-04-14 03:31 | 44.76254 | -89.34623 | 15085 ft | 387 kts | 126° |
| 2026-04-14 03:31 | 44.74845 | -89.31414 | 14663 ft | 385 kts | 126° |
| 2026-04-14 03:32 | 44.73442 | -89.28224 | 14257 ft | 382 kts | 126° |
| 2026-04-14 03:32 | 44.72046 | -89.25052 | 13837 ft | 380 kts | 126° |
| 2026-04-14 03:32 | 44.70658 | -89.21903 | 13383 ft | 378 kts | 125° |
| 2026-04-14 03:32 | 44.69277 | -89.18771 | 12921 ft | 376 kts | 125° |
| 2026-04-14 03:33 | 44.67905 | -89.15665 | 12501 ft | 373 kts | 125° |
| 2026-04-14 03:33 | 44.66543 | -89.12584 | 12104 ft | 369 kts | 125° |
| 2026-04-14 03:33 | 44.65196 | -89.09538 | 11698 ft | 366 kts | 125° |
| 2026-04-14 03:33 | 44.63853 | -89.06507 | 11291 ft | 364 kts | 125° |
| 2026-04-14 03:34 | 44.61256 | -89.00655 | 10833 ft | 334 kts | 125° |
| 2026-04-14 03:34 | 44.60062 | -88.97968 | 10707 ft | 314 kts | 125° |
| 2026-04-14 03:34 | 44.58939 | -88.95443 | 10573 ft | 297 kts | 125° |
| 2026-04-14 03:35 | 44.57874 | -88.93051 | 10443 ft | 282 kts | 125° |
| 2026-04-14 03:35 | 44.56828 | -88.90704 | 10311 ft | 290 kts | 125° |
| 2026-04-14 03:35 | 44.55741 | -88.88267 | 10171 ft | 298 kts | 125° |
| 2026-04-14 03:35 | 44.54634 | -88.85786 | 9935 ft | 302 kts | 125° |
| 2026-04-14 03:36 | 44.53515 | -88.83280 | 9614 ft | 303 kts | 125° |
| 2026-04-14 03:36 | 44.52395 | -88.80776 | 9290 ft | 302 kts | 125° |
| 2026-04-14 03:36 | 44.51298 | -88.78326 | 8981 ft | 300 kts | 125° |
| 2026-04-14 03:36 | 44.50196 | -88.75866 | 8671 ft | 297 kts | 125° |
| 2026-04-14 03:37 | 44.49102 | -88.73426 | 8367 ft | 295 kts | 125° |
| 2026-04-14 03:37 | 44.48099 | -88.71190 | 8084 ft | 293 kts | 125° |
| 2026-04-14 03:37 | 44.47019 | -88.68784 | 7779 ft | 291 kts | 125° |
| 2026-04-14 03:37 | 44.45948 | -88.66399 | 7468 ft | 289 kts | 125° |
| 2026-04-14 03:38 | 44.44885 | -88.64036 | 7166 ft | 287 kts | 125° |
| 2026-04-14 03:38 | 44.43824 | -88.61675 | 6873 ft | 285 kts | 126° |
| 2026-04-14 03:38 | 44.42773 | -88.59340 | 6546 ft | 283 kts | 126° |
| 2026-04-14 03:38 | 44.41738 | -88.57043 | 6389 ft | 275 kts | 126° |
| 2026-04-14 03:39 | 44.40735 | -88.54819 | 6256 ft | 267 kts | 126° |
| 2026-04-14 03:39 | 44.39762 | -88.52658 | 6124 ft | 259 kts | 126° |
| 2026-04-14 03:39 | 44.38816 | -88.50565 | 5970 ft | 251 kts | 126° |
| 2026-04-14 03:39 | 44.37902 | -88.48541 | 5849 ft | 242 kts | 126° |
| 2026-04-14 03:40 | 44.37018 | -88.46586 | 5701 ft | 234 kts | 127° |
| 2026-04-14 03:40 | 44.36393 | -88.44510 | 5472 ft | 235 kts | 100° |
| 2026-04-14 03:40 | 44.36525 | -88.42244 | 5162 ft | 237 kts | 69° |
| 2026-04-14 03:40 | 44.37284 | -88.40213 | 4883 ft | 235 kts | 58° |
| 2026-04-14 03:41 | 44.38095 | -88.38236 | 4586 ft | 235 kts | 58° |
| 2026-04-14 03:41 | 44.38913 | -88.36260 | 4270 ft | 235 kts | 59° |
| 2026-04-14 03:41 | 44.39734 | -88.34282 | 3964 ft | 235 kts | 60° |
| 2026-04-14 03:41 | 44.40552 | -88.32316 | 3681 ft | 231 kts | 60° |
| 2026-04-14 03:42 | 44.41334 | -88.30438 | 3373 ft | 217 kts | 61° |
| 2026-04-14 03:42 | 44.42062 | -88.28689 | 3101 ft | 199 kts | 62° |
| 2026-04-14 03:42 | 44.42730 | -88.27082 | 2829 ft | 184 kts | 62° |
| 2026-04-14 03:42 | 44.43350 | -88.25591 | 2590 ft | 172 kts | 63° |
| 2026-04-14 03:43 | 44.43936 | -88.24180 | 2410 ft | 161 kts | 63° |
| 2026-04-14 03:43 | 44.44482 | -88.22866 | 2180 ft | 153 kts | 63° |
| 2026-04-14 03:43 | 44.45005 | -88.21609 | 2002 ft | 147 kts | 64° |
| 2026-04-14 03:43 | 44.45512 | -88.20387 | 1790 ft | 144 kts | 64° |
| 2026-04-14 03:44 | 44.46007 | -88.19193 | 1605 ft | 139 kts | 63° |
| 2026-04-14 03:44 | 44.46473 | -88.18058 | 1423 ft | 131 kts | 60° |
| 2026-04-14 03:44 | 44.46922 | -88.16985 | 1235 ft | 124 kts | 60° |
| 2026-04-14 03:44 | 44.47349 | -88.15958 | 1065 ft | 121 kts | 60° |
| 2026-04-14 03:45 | 44.47767 | -88.14949 | 924 ft | 118 kts | 58° |
| 2026-04-14 03:45 | 44.48173 | -88.13969 | 752 ft | 116 kts | 58° |
| 2026-04-14 03:45 | 44.48550 | -88.13070 | 702 ft | 87 kts | 59° |
| 2026-04-14 03:45 | 44.48731 | -88.12630 | 696 ft | 20 kts | 57° |
| 2026-04-14 03:46 | 44.48789 | -88.12499 | 690 ft | 16 kts | 46° |
| 2026-04-14 03:46 | 44.48850 | -88.12524 | 701 ft | 10 kts | 302° |
| 2026-04-14 03:46 | 44.48885 | -88.12609 | 698 ft | 14 kts | 300° |
| 2026-04-14 03:46 | 44.48937 | -88.12733 | 697 ft | 13 kts | 319° |
| 2026-04-14 03:47 | 44.48986 | -88.12818 | 698 ft | 10 kts | 291° |
| 2026-04-14 03:47 | 44.49031 | -88.12886 | 695 ft | 9 kts | 336° |
| 2026-04-14 03:47 | 44.49078 | -88.12865 | 697 ft | 7 kts | 68° |
| 2026-04-14 03:47 | 44.49091 | -88.12802 | 698 ft | 5 kts | 75° |
| 2026-04-14 03:48 | 44.49092 | -88.12797 | 699 ft | 0 kts | 75° |